sensor_id;sensor_type;location;lat;lon;timestamp;temperature;humidity
28725;DHT22;43472;48.980;9.646;2023-06-14T00:03:25;13.00;99.90
28725;DHT22;43472;48.980;9.646;2023-06-14T00:08:27;12.70;99.90
28725;DHT22;43472;48.980;9.646;2023-06-14T00:13:29;12.70;99.90
28725;DHT22;43472;48.980;9.646;2023-06-14T00:18:31;12.40;99.90
28725;DHT22;43472;48.980;9.646;2023-06-14T00:23:33;12.20;99.90
28725;DHT22;43472;48.980;9.646;2023-06-14T00:28:35;12.10;99.90
28725;DHT22;43472;48.980;9.646;2023-06-14T00:38:39;12.30;99.90
28725;DHT22;43472;48.980;9.646;2023-06-14T00:48:43;12.10;99.90
28725;DHT22;43472;48.980;9.646;2023-06-14T00:53:45;13.30;99.90
28725;DHT22;43472;48.980;9.646;2023-06-14T00:58:49;11.90;99.90
28725;DHT22;43472;48.980;9.646;2023-06-14T01:03:52;11.70;99.90
28725;DHT22;43472;48.980;9.646;2023-06-14T01:09:32;11.90;99.90
28725;DHT22;43472;48.980;9.646;2023-06-14T01:14:24;11.80;99.90
28725;DHT22;43472;48.980;9.646;2023-06-14T01:19:27;11.70;99.90
28725;DHT22;43472;48.980;9.646;2023-06-14T01:24:29;13.30;99.90
28725;DHT22;43472;48.980;9.646;2023-06-14T01:29:34;11.30;99.90
28725;DHT22;43472;48.980;9.646;2023-06-14T01:34:38;11.20;99.90
28725;DHT22;43472;48.980;9.646;2023-06-14T01:39:41;11.40;99.90
28725;DHT22;43472;48.980;9.646;2023-06-14T01:44:46;11.50;99.90
28725;DHT22;43472;48.980;9.646;2023-06-14T01:49:48;11.40;99.90
28725;DHT22;43472;48.980;9.646;2023-06-14T01:54:50;12.20;99.90
28725;DHT22;43472;48.980;9.646;2023-06-14T01:59:52;11.20;99.90
28725;DHT22;43472;48.980;9.646;2023-06-14T02:04:54;11.30;99.90
28725;DHT22;43472;48.980;9.646;2023-06-14T02:09:59;10.80;99.90
28725;DHT22;43472;48.980;9.646;2023-06-14T02:15:01;10.80;99.90
28725;DHT22;43472;48.980;9.646;2023-06-14T02:20:03;10.80;99.90
28725;DHT22;43472;48.980;9.646;2023-06-14T02:25:06;10.50;99.90
28725;DHT22;43472;48.980;9.646;2023-06-14T02:30:09;10.50;99.90
28725;DHT22;43472;48.980;9.646;2023-06-14T02:35:12;10.80;99.90
28725;DHT22;43472;48.980;9.646;2023-06-14T02:40:14;10.80;99.90
28725;DHT22;43472;48.980;9.646;2023-06-14T02:45:17;10.70;99.90
28725;DHT22;43472;48.980;9.646;2023-06-14T02:50:19;10.70;99.90
28725;DHT22;43472;48.980;9.646;2023-06-14T02:55:23;10.40;99.90
28725;DHT22;43472;48.980;9.646;2023-06-14T03:00:25;10.40;99.90
28725;DHT22;43472;48.980;9.646;2023-06-14T03:05:27;10.40;99.90
28725;DHT22;43472;48.980;9.646;2023-06-14T03:10:30;10.40;99.90
28725;DHT22;43472;48.980;9.646;2023-06-14T03:15:32;10.30;99.90
28725;DHT22;43472;48.980;9.646;2023-06-14T03:20:38;10.30;99.90
28725;DHT22;43472;48.980;9.646;2023-06-14T03:25:40;10.30;99.90
28725;DHT22;43472;48.980;9.646;2023-06-14T03:30:43;10.30;99.90
28725;DHT22;43472;48.980;9.646;2023-06-14T03:35:46;10.20;99.90
28725;DHT22;43472;48.980;9.646;2023-06-14T03:40:48;10.10;99.90
28725;DHT22;43472;48.980;9.646;2023-06-14T03:45:50;10.00;99.90
28725;DHT22;43472;48.980;9.646;2023-06-14T03:50:52;10.00;99.90
28725;DHT22;43472;48.980;9.646;2023-06-14T03:55:55;11.50;99.90
28725;DHT22;43472;48.980;9.646;2023-06-14T04:00:57;10.30;99.90
28725;DHT22;43472;48.980;9.646;2023-06-14T04:06:00;10.00;99.90
28725;DHT22;43472;48.980;9.646;2023-06-14T04:11:02;10.30;99.90
28725;DHT22;43472;48.980;9.646;2023-06-14T04:16:04;10.20;99.90
28725;DHT22;43472;48.980;9.646;2023-06-14T04:21:07;10.20;99.90
28725;DHT22;43472;48.980;9.646;2023-06-14T04:26:10;10.20;99.90
28725;DHT22;43472;48.980;9.646;2023-06-14T04:31:12;10.20;99.90
28725;DHT22;43472;48.980;9.646;2023-06-14T04:36:14;10.30;99.90
28725;DHT22;43472;48.980;9.646;2023-06-14T04:41:22;10.40;99.90
28725;DHT22;43472;48.980;9.646;2023-06-14T04:46:24;10.50;99.90
28725;DHT22;43472;48.980;9.646;2023-06-14T04:51:26;11.90;99.90
28725;DHT22;43472;48.980;9.646;2023-06-14T04:56:31;10.60;99.90
28725;DHT22;43472;48.980;9.646;2023-06-14T05:01:34;10.70;99.90
28725;DHT22;43472;48.980;9.646;2023-06-14T05:06:37;10.40;99.90
28725;DHT22;43472;48.980;9.646;2023-06-14T05:11:40;11.00;99.90
28725;DHT22;43472;48.980;9.646;2023-06-14T05:16:43;13.10;99.90
28725;DHT22;43472;48.980;9.646;2023-06-14T05:21:47;11.20;99.90
28725;DHT22;43472;48.980;9.646;2023-06-14T05:26:49;11.60;99.90
28725;DHT22;43472;48.980;9.646;2023-06-14T05:31:51;11.60;99.90
28725;DHT22;43472;48.980;9.646;2023-06-14T05:36:53;11.90;99.90
28725;DHT22;43472;48.980;9.646;2023-06-14T05:41:55;12.20;99.90
28725;DHT22;43472;48.980;9.646;2023-06-14T05:46:57;12.80;99.90
28725;DHT22;43472;48.980;9.646;2023-06-14T05:51:58;13.10;99.90
28725;DHT22;43472;48.980;9.646;2023-06-14T05:57:00;13.60;99.90
28725;DHT22;43472;48.980;9.646;2023-06-14T06:02:03;13.70;99.90
28725;DHT22;43472;48.980;9.646;2023-06-14T06:07:05;14.10;99.90
28725;DHT22;43472;48.980;9.646;2023-06-14T06:12:07;14.30;99.90
28725;DHT22;43472;48.980;9.646;2023-06-14T06:17:09;14.80;99.90
28725;DHT22;43472;48.980;9.646;2023-06-14T06:22:11;15.20;99.90
28725;DHT22;43472;48.980;9.646;2023-06-14T06:27:13;15.70;99.90
28725;DHT22;43472;48.980;9.646;2023-06-14T06:32:15;15.90;99.90
28725;DHT22;43472;48.980;9.646;2023-06-14T06:37:18;16.40;99.90
28725;DHT22;43472;48.980;9.646;2023-06-14T06:42:19;16.70;99.90
28725;DHT22;43472;48.980;9.646;2023-06-14T06:47:21;16.90;99.90
28725;DHT22;43472;48.980;9.646;2023-06-14T06:52:23;17.10;99.90
28725;DHT22;43472;48.980;9.646;2023-06-14T06:57:25;17.30;99.90
28725;DHT22;43472;48.980;9.646;2023-06-14T07:02:28;17.40;99.90
28725;DHT22;43472;48.980;9.646;2023-06-14T07:07:32;17.60;99.90
28725;DHT22;43472;48.980;9.646;2023-06-14T07:12:34;17.80;99.90
28725;DHT22;43472;48.980;9.646;2023-06-14T07:17:41;17.80;99.90
28725;DHT22;43472;48.980;9.646;2023-06-14T07:22:44;18.20;99.90
28725;DHT22;43472;48.980;9.646;2023-06-14T07:27:46;18.10;99.90
28725;DHT22;43472;48.980;9.646;2023-06-14T07:32:48;18.20;99.90
28725;DHT22;43472;48.980;9.646;2023-06-14T07:37:51;18.40;99.90
28725;DHT22;43472;48.980;9.646;2023-06-14T07:42:52;18.70;99.90
28725;DHT22;43472;48.980;9.646;2023-06-14T07:47:56;18.80;99.90
28725;DHT22;43472;48.980;9.646;2023-06-14T07:52:58;18.90;99.90
28725;DHT22;43472;48.980;9.646;2023-06-14T07:58:00;19.20;99.90
28725;DHT22;43472;48.980;9.646;2023-06-14T08:03:02;19.70;99.70
28725;DHT22;43472;48.980;9.646;2023-06-14T08:08:04;19.70;99.70
28725;DHT22;43472;48.980;9.646;2023-06-14T08:13:06;19.90;99.50
28725;DHT22;43472;48.980;9.646;2023-06-14T08:18:08;20.10;98.20
28725;DHT22;43472;48.980;9.646;2023-06-14T08:23:11;20.10;98.90
28725;DHT22;43472;48.980;9.646;2023-06-14T08:28:13;20.20;99.20
28725;DHT22;43472;48.980;9.646;2023-06-14T08:33:14;20.30;98.40
28725;DHT22;43472;48.980;9.646;2023-06-14T08:38:18;20.60;98.90
28725;DHT22;43472;48.980;9.646;2023-06-14T08:43:20;20.80;98.50
28725;DHT22;43472;48.980;9.646;2023-06-14T08:48:23;20.90;98.10
28725;DHT22;43472;48.980;9.646;2023-06-14T08:53:31;21.10;97.90
28725;DHT22;43472;48.980;9.646;2023-06-14T08:58:42;20.80;98.10
28725;DHT22;43472;48.980;9.646;2023-06-14T09:03:46;21.10;96.80
28725;DHT22;43472;48.980;9.646;2023-06-14T09:08:50;21.30;96.70
28725;DHT22;43472;48.980;9.646;2023-06-14T09:13:52;21.50;95.80
28725;DHT22;43472;48.980;9.646;2023-06-14T09:18:54;21.20;97.00
28725;DHT22;43472;48.980;9.646;2023-06-14T09:23:59;21.50;96.40
28725;DHT22;43472;48.980;9.646;2023-06-14T09:29:05;21.80;95.30
28725;DHT22;43472;48.980;9.646;2023-06-14T09:34:07;21.90;93.90
28725;DHT22;43472;48.980;9.646;2023-06-14T09:39:09;22.10;94.20
28725;DHT22;43472;48.980;9.646;2023-06-14T09:44:11;22.40;93.20
28725;DHT22;43472;48.980;9.646;2023-06-14T09:49:22;22.30;93.20
28725;DHT22;43472;48.980;9.646;2023-06-14T09:54:25;22.70;91.70
28725;DHT22;43472;48.980;9.646;2023-06-14T09:59:31;22.70;91.20
28725;DHT22;43472;48.980;9.646;2023-06-14T10:04:34;22.60;91.50
28725;DHT22;43472;48.980;9.646;2023-06-14T10:14:41;23.00;89.10
28725;DHT22;43472;48.980;9.646;2023-06-14T10:19:55;23.10;89.30
28725;DHT22;43472;48.980;9.646;2023-06-14T10:24:57;22.40;90.20
28725;DHT22;43472;48.980;9.646;2023-06-14T10:35:06;22.30;90.90
28725;DHT22;43472;48.980;9.646;2023-06-14T10:40:09;22.30;90.80
28725;DHT22;43472;48.980;9.646;2023-06-14T10:45:31;22.10;90.90
28725;DHT22;43472;48.980;9.646;2023-06-14T10:50:34;22.10;91.20
28725;DHT22;43472;48.980;9.646;2023-06-14T10:55:36;22.60;90.90
28725;DHT22;43472;48.980;9.646;2023-06-14T11:00:38;22.60;90.70
28725;DHT22;43472;48.980;9.646;2023-06-14T11:05:53;23.00;88.70
28725;DHT22;43472;48.980;9.646;2023-06-14T11:10:59;22.10;89.70
28725;DHT22;43472;48.980;9.646;2023-06-14T11:16:02;22.20;90.40
28725;DHT22;43472;48.980;9.646;2023-06-14T11:21:07;22.20;90.60
28725;DHT22;43472;48.980;9.646;2023-06-14T11:26:10;22.50;88.10
28725;DHT22;43472;48.980;9.646;2023-06-14T11:31:12;22.50;87.90
28725;DHT22;43472;48.980;9.646;2023-06-14T11:36:15;22.40;89.70
28725;DHT22;43472;48.980;9.646;2023-06-14T11:41:17;23.10;88.10
28725;DHT22;43472;48.980;9.646;2023-06-14T11:46:19;24.00;85.00
28725;DHT22;43472;48.980;9.646;2023-06-14T11:51:25;24.50;84.40
28725;DHT22;43472;48.980;9.646;2023-06-14T11:56:28;22.40;82.80
28725;DHT22;43472;48.980;9.646;2023-06-14T12:01:30;22.50;84.00
28725;DHT22;43472;48.980;9.646;2023-06-14T12:06:34;22.60;83.00
28725;DHT22;43472;48.980;9.646;2023-06-14T12:11:38;22.60;86.90
28725;DHT22;43472;48.980;9.646;2023-06-14T12:16:40;22.90;84.60
28725;DHT22;43472;48.980;9.646;2023-06-14T12:21:48;22.50;86.70
28725;DHT22;43472;48.980;9.646;2023-06-14T12:26:51;22.60;86.70
28725;DHT22;43472;48.980;9.646;2023-06-14T12:31:54;22.30;88.50
28725;DHT22;43472;48.980;9.646;2023-06-14T12:36:58;23.90;83.50
28725;DHT22;43472;48.980;9.646;2023-06-14T12:42:00;22.70;84.40
28725;DHT22;43472;48.980;9.646;2023-06-14T12:47:02;24.70;81.60
28725;DHT22;43472;48.980;9.646;2023-06-14T12:52:05;23.50;84.80
28725;DHT22;43472;48.980;9.646;2023-06-14T12:57:07;23.20;83.10
28725;DHT22;43472;48.980;9.646;2023-06-14T13:02:17;23.10;84.00
28725;DHT22;43472;48.980;9.646;2023-06-14T13:07:19;23.20;81.00
28725;DHT22;43472;48.980;9.646;2023-06-14T13:12:21;23.20;84.90
28725;DHT22;43472;48.980;9.646;2023-06-14T13:17:23;22.00;84.60
28725;DHT22;43472;48.980;9.646;2023-06-14T13:22:25;22.60;85.80
28725;DHT22;43472;48.980;9.646;2023-06-14T13:27:27;23.50;84.00
28725;DHT22;43472;48.980;9.646;2023-06-14T13:32:29;23.10;85.40
28725;DHT22;43472;48.980;9.646;2023-06-14T13:37:31;24.60;79.70
28725;DHT22;43472;48.980;9.646;2023-06-14T13:42:33;25.20;81.80
28725;DHT22;43472;48.980;9.646;2023-06-14T13:47:35;25.50;77.60
28725;DHT22;43472;48.980;9.646;2023-06-14T13:52:37;25.50;76.80
28725;DHT22;43472;48.980;9.646;2023-06-14T13:57:56;25.50;78.40
28725;DHT22;43472;48.980;9.646;2023-06-14T14:02:58;24.90;79.70
28725;DHT22;43472;48.980;9.646;2023-06-14T14:08:18;24.00;80.70
28725;DHT22;43472;48.980;9.646;2023-06-14T14:13:38;24.30;82.40
28725;DHT22;43472;48.980;9.646;2023-06-14T14:18:58;24.50;78.80
28725;DHT22;43472;48.980;9.646;2023-06-14T14:24:18;25.20;78.70
28725;DHT22;43472;48.980;9.646;2023-06-14T14:34:40;24.70;77.10
28725;DHT22;43472;48.980;9.646;2023-06-14T14:39:44;24.60;74.30
28725;DHT22;43472;48.980;9.646;2023-06-14T14:44:47;24.70;72.60
28725;DHT22;43472;48.980;9.646;2023-06-14T14:49:49;22.90;82.30
28725;DHT22;43472;48.980;9.646;2023-06-14T14:54:50;22.80;83.00
28725;DHT22;43472;48.980;9.646;2023-06-14T14:59:56;21.60;75.90
28725;DHT22;43472;48.980;9.646;2023-06-14T15:04:58;23.00;80.80
28725;DHT22;43472;48.980;9.646;2023-06-14T15:10:02;23.00;81.50
28725;DHT22;43472;48.980;9.646;2023-06-14T15:15:04;22.40;85.10
28725;DHT22;43472;48.980;9.646;2023-06-14T15:20:07;22.30;85.50
28725;DHT22;43472;48.980;9.646;2023-06-14T15:25:09;24.40;79.20
28725;DHT22;43472;48.980;9.646;2023-06-14T15:30:12;24.40;80.40
28725;DHT22;43472;48.980;9.646;2023-06-14T15:35:17;23.90;80.80
28725;DHT22;43472;48.980;9.646;2023-06-14T15:40:20;23.70;81.10
28725;DHT22;43472;48.980;9.646;2023-06-14T15:45:24;23.80;81.70
28725;DHT22;43472;48.980;9.646;2023-06-14T15:50:26;23.50;82.80
28725;DHT22;43472;48.980;9.646;2023-06-14T15:55:29;24.60;77.20
28725;DHT22;43472;48.980;9.646;2023-06-14T16:00:31;24.60;78.50
28725;DHT22;43472;48.980;9.646;2023-06-14T16:05:33;23.80;78.90
28725;DHT22;43472;48.980;9.646;2023-06-14T16:10:35;23.80;79.80
28725;DHT22;43472;48.980;9.646;2023-06-14T16:15:38;23.70;79.70
28725;DHT22;43472;48.980;9.646;2023-06-14T16:20:39;24.00;78.70
28725;DHT22;43472;48.980;9.646;2023-06-14T16:25:41;24.20;75.20
28725;DHT22;43472;48.980;9.646;2023-06-14T16:30:43;23.90;78.10
28725;DHT22;43472;48.980;9.646;2023-06-14T16:35:46;23.80;80.20
28725;DHT22;43472;48.980;9.646;2023-06-14T16:40:48;23.70;81.20
28725;DHT22;43472;48.980;9.646;2023-06-14T16:45:50;23.20;81.10
28725;DHT22;43472;48.980;9.646;2023-06-14T16:50:52;23.40;81.80
28725;DHT22;43472;48.980;9.646;2023-06-14T16:55:54;23.20;82.30
28725;DHT22;43472;48.980;9.646;2023-06-14T17:00:56;23.40;83.10
28725;DHT22;43472;48.980;9.646;2023-06-14T17:05:58;23.20;82.50
28725;DHT22;43472;48.980;9.646;2023-06-14T17:11:00;23.10;83.20
28725;DHT22;43472;48.980;9.646;2023-06-14T17:16:02;23.00;82.60
28725;DHT22;43472;48.980;9.646;2023-06-14T17:21:04;23.10;82.40
28725;DHT22;43472;48.980;9.646;2023-06-14T17:26:06;21.60;86.60
28725;DHT22;43472;48.980;9.646;2023-06-14T17:31:08;21.50;87.90
28725;DHT22;43472;48.980;9.646;2023-06-14T17:36:10;21.80;85.70
28725;DHT22;43472;48.980;9.646;2023-06-14T17:41:12;21.90;85.40
28725;DHT22;43472;48.980;9.646;2023-06-14T17:46:15;22.00;84.50
28725;DHT22;43472;48.980;9.646;2023-06-14T17:51:18;22.20;84.60
28725;DHT22;43472;48.980;9.646;2023-06-14T17:56:20;22.00;84.60
28725;DHT22;43472;48.980;9.646;2023-06-14T18:01:24;22.10;84.10
28725;DHT22;43472;48.980;9.646;2023-06-14T18:06:26;22.00;84.30
28725;DHT22;43472;48.980;9.646;2023-06-14T18:11:28;21.90;85.90
28725;DHT22;43472;48.980;9.646;2023-06-14T18:16:32;21.70;85.70
28725;DHT22;43472;48.980;9.646;2023-06-14T18:21:34;21.50;87.50
28725;DHT22;43472;48.980;9.646;2023-06-14T18:26:36;21.40;89.20
28725;DHT22;43472;48.980;9.646;2023-06-14T18:31:38;21.20;89.70
28725;DHT22;43472;48.980;9.646;2023-06-14T18:36:40;20.90;91.10
28725;DHT22;43472;48.980;9.646;2023-06-14T18:41:42;21.00;90.90
28725;DHT22;43472;48.980;9.646;2023-06-14T18:46:45;20.70;91.40
28725;DHT22;43472;48.980;9.646;2023-06-14T18:51:47;20.70;91.30
28725;DHT22;43472;48.980;9.646;2023-06-14T18:56:49;20.20;91.50
28725;DHT22;43472;48.980;9.646;2023-06-14T19:01:51;20.20;91.90
28725;DHT22;43472;48.980;9.646;2023-06-14T19:06:53;20.10;92.20
28725;DHT22;43472;48.980;9.646;2023-06-14T19:11:55;20.00;93.10
28725;DHT22;43472;48.980;9.646;2023-06-14T19:16:57;19.50;92.70
28725;DHT22;43472;48.980;9.646;2023-06-14T19:21:58;19.50;93.30
28725;DHT22;43472;48.980;9.646;2023-06-14T19:27:00;19.40;93.30
28725;DHT22;43472;48.980;9.646;2023-06-14T19:32:02;19.30;93.20
28725;DHT22;43472;48.980;9.646;2023-06-14T19:37:05;18.90;93.70
28725;DHT22;43472;48.980;9.646;2023-06-14T19:42:08;18.90;94.40
28725;DHT22;43472;48.980;9.646;2023-06-14T19:47:10;18.70;94.40
28725;DHT22;43472;48.980;9.646;2023-06-14T19:52:12;18.70;94.50
28725;DHT22;43472;48.980;9.646;2023-06-14T19:57:14;18.50;94.90
28725;DHT22;43472;48.980;9.646;2023-06-14T20:02:16;18.30;95.60
28725;DHT22;43472;48.980;9.646;2023-06-14T20:07:20;17.90;96.50
28725;DHT22;43472;48.980;9.646;2023-06-14T20:12:22;17.90;96.20
28725;DHT22;43472;48.980;9.646;2023-06-14T20:17:24;17.80;97.10
28725;DHT22;43472;48.980;9.646;2023-06-14T20:22:26;17.80;97.10
28725;DHT22;43472;48.980;9.646;2023-06-14T20:32:31;17.80;96.80
28725;DHT22;43472;48.980;9.646;2023-06-14T20:37:33;17.60;97.70
28725;DHT22;43472;48.980;9.646;2023-06-14T20:42:36;17.40;98.40
28725;DHT22;43472;48.980;9.646;2023-06-14T20:47:38;17.50;98.50
28725;DHT22;43472;48.980;9.646;2023-06-14T20:52:40;17.50;98.70
28725;DHT22;43472;48.980;9.646;2023-06-14T20:57:42;17.30;98.30
28725;DHT22;43472;48.980;9.646;2023-06-14T21:02:46;17.30;98.80
28725;DHT22;43472;48.980;9.646;2023-06-14T21:07:48;17.10;98.80
28725;DHT22;43472;48.980;9.646;2023-06-14T21:12:50;17.10;99.10
28725;DHT22;43472;48.980;9.646;2023-06-14T21:17:55;16.80;99.30
28725;DHT22;43472;48.980;9.646;2023-06-14T21:28:00;16.70;99.20
28725;DHT22;43472;48.980;9.646;2023-06-14T21:33:02;16.80;99.50
28725;DHT22;43472;48.980;9.646;2023-06-14T21:38:05;16.50;99.40
28725;DHT22;43472;48.980;9.646;2023-06-14T21:43:06;16.30;99.90
28725;DHT22;43472;48.980;9.646;2023-06-14T21:48:08;16.10;99.90
28725;DHT22;43472;48.980;9.646;2023-06-14T21:53:11;16.20;99.90
28725;DHT22;43472;48.980;9.646;2023-06-14T21:58:13;16.00;99.90
28725;DHT22;43472;48.980;9.646;2023-06-14T22:03:14;16.00;99.90
28725;DHT22;43472;48.980;9.646;2023-06-14T22:08:16;15.80;99.90
28725;DHT22;43472;48.980;9.646;2023-06-14T22:13:19;15.80;99.90
28725;DHT22;43472;48.980;9.646;2023-06-14T22:18:21;15.60;99.90
28725;DHT22;43472;48.980;9.646;2023-06-14T22:23:23;15.50;99.90
28725;DHT22;43472;48.980;9.646;2023-06-14T22:28:27;15.20;99.90
28725;DHT22;43472;48.980;9.646;2023-06-14T22:33:29;15.20;99.90
28725;DHT22;43472;48.980;9.646;2023-06-14T22:38:31;14.90;99.90
28725;DHT22;43472;48.980;9.646;2023-06-14T22:43:38;14.70;99.90
28725;DHT22;43472;48.980;9.646;2023-06-14T22:48:40;14.80;99.90
28725;DHT22;43472;48.980;9.646;2023-06-14T22:53:51;14.70;99.90
28725;DHT22;43472;48.980;9.646;2023-06-14T22:58:53;14.60;99.90
28725;DHT22;43472;48.980;9.646;2023-06-14T23:03:55;14.70;99.90
28725;DHT22;43472;48.980;9.646;2023-06-14T23:08:57;16.30;99.90
28725;DHT22;43472;48.980;9.646;2023-06-14T23:14:01;15.70;99.90
28725;DHT22;43472;48.980;9.646;2023-06-14T23:24:06;14.70;99.90
28725;DHT22;43472;48.980;9.646;2023-06-14T23:29:09;14.50;99.90
28725;DHT22;43472;48.980;9.646;2023-06-14T23:34:11;14.70;99.90
28725;DHT22;43472;48.980;9.646;2023-06-14T23:39:13;14.50;99.90
28725;DHT22;43472;48.980;9.646;2023-06-14T23:44:14;15.00;99.90
28725;DHT22;43472;48.980;9.646;2023-06-14T23:49:23;14.60;99.90
28725;DHT22;43472;48.980;9.646;2023-06-14T23:54:25;14.70;99.90
28725;DHT22;43472;48.980;9.646;2023-06-14T23:59:27;14.80;99.90
